Time;durP1;ratioP1;P1;durP2;ratioP2;P2;SDS_P1;SDS_P2;PMS_P1;PMS_P2;Temp;Humidity;BMP_temperature;BMP_pressure;BME280_temperature;BME280_humidity;BME280_pressure;Samples;Min_cycle;Max_cycle;Signal;HPM_P1;HPM_P2
2023/09/09 00:06:42;;;;;;;15.00;9.90;;;;;;;14.02;81.54;99989.45;434861;1254;138944;-61
2023/09/09 00:16:48;;;;;;;10.80;9.20;;;;;;;13.92;81.54;99985.77;434930;1258;138818;-62
2023/09/09 00:26:55;;;;;;;13.50;9.40;;;;;;;13.82;81.54;99986.63;434894;1254;139272;-61
2023/09/09 00:37:03;;;;;;;12.30;9.60;;;;;;;13.73;82.25;99981.64;435686;1255;138809;-61
2023/09/09 00:47:09;;;;;;;12.80;10.50;;;;;;;13.64;82.52;99972.73;435260;1254;139030;-61
2023/09/09 00:57:17;;;;;;;14.20;10.30;;;;;;;13.53;82.57;99968.98;435327;1257;138910;-62
2023/09/09 01:07:23;;;;;;;12.50;10.70;;;;;;;13.45;83.30;99971.96;435239;1254;140041;-62
2023/09/09 01:17:29;;;;;;;13.70;10.50;;;;;;;13.38;83.70;99978.27;434814;1254;138921;-61
2023/09/09 01:27:35;;;;;;;17.20;12.40;;;;;;;13.31;83.94;99984.20;435150;1254;140639;-61
2023/09/09 01:37:40;;;;;;;12.10;9.80;;;;;;;13.22;84.38;99986.34;435229;1257;138857;-64
2023/09/09 01:47:46;;;;;;;12.30;11.10;;;;;;;13.18;85.63;99989.97;435514;1256;140670;-61
2023/09/09 01:57:52;;;;;;;15.50;9.70;;;;;;;13.12;85.35;99981.59;435336;1256;139362;-62
2023/09/09 02:07:58;;;;;;;10.90;9.70;;;;;;;13.06;85.74;99978.86;435095;1254;138910;-62
2023/09/09 02:18:04;;;;;;;11.20;8.90;;;;;;;12.99;85.78;99979.81;435169;1257;139369;-61
2023/09/09 02:28:11;;;;;;;23.70;11.70;;;;;;;12.95;86.84;99979.56;435500;1254;139276;-61
2023/09/09 02:38:16;;;;;;;17.60;11.80;;;;;;;12.95;87.96;99980.43;435894;1254;139123;-61
2023/09/09 02:48:22;;;;;;;13.50;10.80;;;;;;;12.96;88.53;99973.55;435235;1254;140314;-61
2023/09/09 02:58:28;;;;;;;15.80;11.90;;;;;;;12.94;88.71;99977.70;434996;1254;139884;-61
2023/09/09 03:08:34;;;;;;;12.00;10.30;;;;;;;12.90;89.17;99976.55;434770;1254;139911;-61
2023/09/09 03:18:40;;;;;;;14.60;9.90;;;;;;;12.82;88.70;99982.58;434918;1254;139287;-61
2023/09/09 03:28:46;;;;;;;14.20;10.40;;;;;;;12.73;88.68;99987.51;434747;1253;140393;-61
2023/09/09 03:38:51;;;;;;;15.20;9.90;;;;;;;12.65;88.50;99990.33;435212;1254;139786;-61
2023/09/09 03:48:57;;;;;;;13.60;9.80;;;;;;;12.59;88.65;99986.90;435583;1254;138855;-61
2023/09/09 03:59:03;;;;;;;17.10;11.60;;;;;;;12.53;89.21;99988.52;434971;1256;138951;-61
2023/09/09 04:09:09;;;;;;;42.10;13.70;;;;;;;12.55;90.42;99990.14;435127;1254;139294;-62
2023/09/09 04:19:15;;;;;;;22.60;11.20;;;;;;;12.52;90.07;99985.40;435507;1253;139046;-62
2023/09/09 04:29:21;;;;;;;21.70;12.20;;;;;;;12.57;90.28;99989.66;435409;1253;139252;-61
2023/09/09 04:39:27;;;;;;;12.30;10.80;;;;;;;12.73;90.66;99993.86;435704;1253;138982;-61
2023/09/09 04:49:33;;;;;;;13.00;10.50;;;;;;;13.00;91.04;99994.01;435632;1253;138813;-62
2023/09/09 04:59:39;;;;;;;16.20;9.70;;;;;;;13.40;91.42;99993.27;435211;1256;140928;-62
2023/09/09 05:09:45;;;;;;;13.10;10.00;;;;;;;13.92;90.85;99994.20;435355;1253;138975;-62
2023/09/09 05:19:50;;;;;;;13.90;9.70;;;;;;;15.04;91.45;99993.90;435614;1254;139464;-61
2023/09/09 05:29:56;;;;;;;13.00;8.40;;;;;;;17.29;89.31;100000.59;435041;1256;139007;-62
2023/09/09 05:40:02;;;;;;;17.70;10.60;;;;;;;21.70;86.59;100007.06;435349;1253;141360;-62
2023/09/09 05:50:12;;;;;;;16.20;9.90;;;;;;;26.12;76.06;100012.13;436184;1254;139220;-63
2023/09/09 06:00:20;;;;;;;12.60;10.30;;;;;;;30.28;64.86;100011.66;435925;1254;139624;-63
2023/09/09 06:10:25;;;;;;;14.80;9.10;;;;;;;33.53;55.57;100008.83;435604;1254;139428;-62
2023/09/09 06:20:31;;;;;;;10.60;9.20;;;;;;;36.53;48.70;100011.05;435455;1256;138821;-63
2023/09/09 06:30:42;;;;;;;8.80;7.90;;;;;;;39.39;42.63;100017.03;435347;1256;138225;-63
2023/09/09 06:40:48;;;;;;;8.80;8.00;;;;;;;41.97;37.38;100022.85;435526;1253;139829;-62
2023/09/09 06:50:54;;;;;;;8.40;7.40;;;;;;;44.03;33.46;100023.27;435454;1257;138402;-63
2023/09/09 07:01:02;;;;;;;6.90;6.20;;;;;;;46.02;30.07;100022.80;435412;1257;138040;-63
2023/09/09 07:11:08;;;;;;;6.90;6.40;;;;;;;47.33;27.41;100028.27;435836;1253;138213;-63
2023/09/09 07:21:14;;;;;;;6.80;5.50;;;;;;;48.20;25.44;100027.52;435048;1255;142431;-63
2023/09/09 07:31:20;;;;;;;6.30;5.20;;;;;;;48.95;23.99;100021.52;435198;1254;139210;-62
2023/09/09 07:41:26;;;;;;;5.40;4.90;;;;;;;50.36;22.72;100015.58;434865;1253;138230;-62
2023/09/09 07:51:32;;;;;;;4.70;4.30;;;;;;;51.10;20.82;100010.81;435290;1257;139516;-63
2023/09/09 08:01:37;;;;;;;4.70;3.90;;;;;;;51.04;19.90;100011.48;435534;1253;140406;-62
2023/09/09 08:11:43;;;;;;;4.10;3.70;;;;;;;50.98;19.41;100007.65;435027;1254;139991;-63
2023/09/09 08:21:50;;;;;;;3.70;3.40;;;;;;;50.69;18.90;100002.66;435234;1257;139616;-63
2023/09/09 08:31:55;;;;;;;5.30;3.70;;;;;;;49.77;18.56;100006.30;435465;1256;138431;-63
2023/09/09 08:42:11;;;;;;;3.70;3.40;;;;;;;47.31;18.85;100007.11;435137;1256;140109;-62
2023/09/09 08:52:23;;;;;;;5.70;4.20;;;;;;;42.50;20.71;100002.39;436064;1253;140794;-62
2023/09/09 09:02:30;;;;;;;4.00;3.60;;;;;;;38.71;23.68;100006.89;435218;1257;138847;-61
2023/09/09 09:12:39;;;;;;;4.80;3.60;;;;;;;36.72;25.82;100013.84;435723;1257;139877;-62
2023/09/09 09:22:45;;;;;;;5.00;3.30;;;;;;;35.69;26.99;100015.41;435863;1257;140838;-62
2023/09/09 09:32:53;;;;;;;5.80;4.10;;;;;;;34.93;28.26;100004.75;435066;1253;138790;-61
2023/09/09 09:42:59;;;;;;;4.90;3.40;;;;;;;34.39;29.00;100000.04;435259;1257;138235;-62
2023/09/09 09:53:07;;;;;;;5.90;3.70;;;;;;;33.61;29.68;99998.05;435205;1256;138967;-62
2023/09/09 10:03:16;;;;;;;3.70;3.40;;;;;;;33.06;29.96;99987.54;435457;1256;139953;-62
2023/09/09 10:13:27;;;;;;;4.30;3.20;;;;;;;32.52;30.58;99985.40;436089;1254;138594;-62
2023/09/09 10:23:33;;;;;;;3.90;3.60;;;;;;;31.76;31.35;99978.94;435927;1253;138686;-62
2023/09/09 10:33:42;;;;;;;4.20;3.70;;;;;;;31.18;32.41;99972.95;435288;1257;138793;-61
2023/09/09 10:43:48;;;;;;;4.70;4.30;;;;;;;30.71;33.03;99966.80;435412;1257;138003;-62
2023/09/09 10:54:08;;;;;;;4.10;3.80;;;;;;;29.96;33.69;99967.48;435731;1257;139335;-62
2023/09/09 11:04:22;;;;;;;5.50;3.70;;;;;;;29.50;34.79;99961.17;435699;1253;138370;-62
2023/09/09 11:14:32;;;;;;;6.20;4.10;;;;;;;29.39;35.88;99952.80;435607;1256;139284;-62
2023/09/09 11:24:38;;;;;;;4.50;3.60;;;;;;;29.32;35.98;99949.79;435259;1253;139258;-62
2023/09/09 11:34:45;;;;;;;6.30;4.70;;;;;;;29.14;36.24;99941.50;435766;1257;138875;-62
2023/09/09 11:44:50;;;;;;;;;;;;;;;28.87;36.98;99946.30;435483;1257;138195;-61
2023/09/09 11:54:56;;;;;;;4.30;3.90;;;;;;;28.72;37.12;99950.20;435474;1257;127128;-62
2023/09/09 12:05:03;;;;;;;7.20;4.90;;;;;;;28.61;37.14;99941.06;434303;1257;138730;-61
2023/09/09 12:15:09;;;;;;;;;;;;;;;28.34;37.48;99938.38;434833;1254;139816;-63
2023/09/09 12:25:32;;;;;;;5.20;4.50;;;;;;;28.26;38.08;99926.13;437037;1257;124643;-62
2023/09/09 12:35:39;;;;;;;6.10;4.30;;;;;;;28.30;38.67;99923.23;435471;1257;139679;-62
2023/09/09 12:45:51;;;;;;;;;;;;;;;28.36;38.28;99917.27;435955;1253;138211;-62
2023/09/09 12:55:56;;;;;;;4.50;4.10;;;;;;;28.57;38.12;99915.02;436713;1258;126802;-62
2023/09/09 13:06:02;;;;;;;5.60;4.00;;;;;;;28.76;38.24;99903.15;435641;1257;138358;-64
2023/09/09 13:16:11;;;;;;;11.50;5.60;;;;;;;28.65;38.58;99900.50;435753;1257;138345;-62
2023/09/09 13:26:17;;;;;;;7.00;4.80;;;;;;;28.29;39.09;99902.85;437170;1253;139413;-62
2023/09/09 13:36:22;;;;;;;5.70;4.50;;;;;;;28.06;39.27;99903.20;436111;1253;138197;-64
2023/09/09 13:46:28;;;;;;;6.50;5.30;;;;;;;27.93;39.38;99905.42;436088;1254;139116;-63
2023/09/09 13:56:34;;;;;;;5.70;4.20;;;;;;;27.82;39.36;99906.36;436414;1254;139484;-63
2023/09/09 14:06:40;;;;;;;9.30;4.60;;;;;;;27.67;39.50;99896.61;436433;1253;139185;-63
2023/09/09 14:16:46;;;;;;;9.10;5.30;;;;;;;27.50;40.00;99892.94;436185;1259;138495;-63
2023/09/09 14:26:52;;;;;;;5.10;4.70;;;;;;;27.41;40.44;99884.31;436492;1259;138353;-63
2023/09/09 14:36:58;;;;;;;5.50;5.00;;;;;;;27.38;40.61;99881.66;436703;1254;138182;-64
2023/09/09 14:47:04;;;;;;;5.20;4.80;;;;;;;27.32;40.59;99878.11;436578;1257;138522;-65
2023/09/09 14:57:11;;;;;;;4.70;4.30;;;;;;;27.23;40.53;99871.95;436381;1256;138543;-65
2023/09/09 15:07:17;;;;;;;5.30;4.70;;;;;;;27.03;40.38;99872.40;436435;1253;138148;-64
2023/09/09 15:17:26;;;;;;;4.30;3.90;;;;;;;26.77;40.61;99866.52;435924;1253;139422;-63
2023/09/09 15:27:32;;;;;;;5.70;5.10;;;;;;;26.52;41.06;99863.41;435815;1256;140051;-63
2023/09/09 15:37:40;;;;;;;9.40;4.70;;;;;;;26.24;41.47;99860.59;436287;1253;139007;-63
2023/09/09 15:47:46;;;;;;;10.00;5.70;;;;;;;25.96;41.92;99858.15;435958;1257;139532;-63
2023/09/09 15:57:52;;;;;;;7.00;6.30;;;;;;;25.75;42.80;99865.57;435881;1257;138285;-63
2023/09/09 16:07:58;;;;;;;6.30;5.60;;;;;;;25.54;43.43;99864.40;436695;1254;138556;-63
2023/09/09 16:18:05;;;;;;;6.40;5.50;;;;;;;25.34;43.59;99859.81;436478;1257;138545;-65
2023/09/09 16:28:11;;;;;;;6.90;5.40;;;;;;;25.06;44.25;99857.35;436211;1257;138324;-64
2023/09/09 16:38:20;;;;;;;6.90;6.00;;;;;;;24.69;44.97;99858.48;436214;1257;139166;-62
2023/09/09 16:48:26;;;;;;;7.20;6.10;;;;;;;24.27;45.72;99859.42;436315;1257;138445;-63
2023/09/09 16:58:32;;;;;;;6.30;5.80;;;;;;;23.86;46.72;99862.27;435820;1254;138081;-65
2023/09/09 17:08:38;;;;;;;8.40;6.60;;;;;;;23.47;47.53;99856.30;435582;1256;139642;-65
2023/09/09 17:18:43;;;;;;;7.60;6.80;;;;;;;23.13;48.71;99863.26;435985;1257;139196;-65
2023/09/09 17:28:49;;;;;;;9.90;7.20;;;;;;;22.83;49.62;99865.63;436031;1257;138706;-65
2023/09/09 17:39:07;;;;;;;8.70;7.80;;;;;;;22.55;50.73;99870.45;436012;1256;138463;-65
2023/09/09 17:49:13;;;;;;;14.60;7.80;;;;;;;22.28;51.82;99880.88;436043;1256;139742;-65
2023/09/09 17:59:19;;;;;;;8.60;7.70;;;;;;;22.03;52.68;99884.27;435944;1257;138293;-64
2023/09/09 18:09:24;;;;;;;11.80;9.10;;;;;;;21.80;53.60;99895.79;436619;1256;139031;-65
2023/09/09 18:19:30;;;;;;;11.70;9.40;;;;;;;21.54;54.61;99900.68;436851;1259;138829;-64
2023/09/09 18:29:36;;;;;;;10.30;9.20;;;;;;;21.28;55.66;99904.77;436342;1257;138379;-65
2023/09/09 18:39:42;;;;;;;18.00;10.70;;;;;;;21.00;56.89;99909.99;436002;1257;139713;-65
2023/09/09 18:49:48;;;;;;;20.80;11.00;;;;;;;20.69;58.31;99906.86;436484;1254;138390;-65
2023/09/09 18:59:54;;;;;;;24.70;12.10;;;;;;;20.42;59.24;99908.91;437397;1254;139966;-65
2023/09/09 19:10:00;;;;;;;28.70;15.10;;;;;;;20.16;60.36;99909.29;437068;1254;141403;-65
2023/09/09 19:20:09;;;;;;;31.10;13.10;;;;;;;19.89;61.47;99906.77;436015;1254;149384;-64
2023/09/09 19:30:17;;;;;;;26.30;15.50;;;;;;;19.57;62.84;99909.80;436039;1257;142532;-64
2023/09/09 19:40:23;;;;;;;33.80;15.60;;;;;;;19.26;64.26;99913.71;435527;1256;140463;-65
2023/09/09 19:50:29;;;;;;;26.60;14.70;;;;;;;18.99;65.27;99913.70;435509;1254;139214;-64
2023/09/09 20:00:35;;;;;;;16.50;12.90;;;;;;;18.76;66.42;99911.34;435811;1257;139332;-65
2023/09/09 20:10:43;;;;;;;17.30;14.20;;;;;;;18.69;67.03;99914.39;435638;1257;141287;-64
2023/09/09 20:20:48;;;;;;;;;;;;;;;18.72;67.51;99909.05;435390;1257;139813;-63
2023/09/09 20:30:53;;;;;;;16.20;14.00;;;;;;;18.73;67.80;99911.08;435673;1254;125191;-66
2023/09/09 20:40:59;;;;;;;20.40;15.90;;;;;;;18.70;68.24;99915.29;435701;1254;139714;-65
2023/09/09 20:51:06;;;;;;;20.20;16.10;;;;;;;18.55;68.89;99914.53;435819;1254;139082;-62
2023/09/09 21:01:12;;;;;;;23.90;17.20;;;;;;;18.36;69.51;99908.36;435600;1257;139383;-66
2023/09/09 21:11:18;;;;;;;22.80;17.10;;;;;;;18.13;69.95;99907.00;435471;1254;139074;-66
2023/09/09 21:21:24;;;;;;;17.00;15.00;;;;;;;17.89;70.64;99911.94;435348;1254;139846;-65
2023/09/09 21:31:30;;;;;;;17.90;15.20;;;;;;;17.68;71.60;99912.80;435494;1257;139153;-67
2023/09/09 21:41:37;;;;;;;16.30;14.50;;;;;;;17.50;72.21;99913.06;435611;1254;140730;-66
2023/09/09 21:51:44;;;;;;;21.00;15.90;;;;;;;17.34;72.85;99919.47;435660;1257;140591;-65
2023/09/09 22:01:50;;;;;;;20.80;16.60;;;;;;;17.21;73.64;99913.27;435580;1256;139261;-63
2023/09/09 22:11:56;;;;;;;21.80;17.20;;;;;;;17.08;74.18;99899.77;435778;1254;140861;-71
2023/09/09 22:22:02;;;;;;;20.70;18.00;;;;;;;16.91;74.83;99890.04;435815;1253;140932;-68
2023/09/09 22:32:08;;;;;;;22.40;19.30;;;;;;;16.79;75.79;99887.54;435939;1254;139895;-65
2023/09/09 22:42:14;;;;;;;27.30;22.40;;;;;;;16.66;75.97;99884.90;435885;1254;139381;-65
2023/09/09 22:52:20;;;;;;;21.40;18.90;;;;;;;16.53;76.54;99887.94;436295;1254;139373;-64
2023/09/09 23:02:26;;;;;;;18.90;17.00;;;;;;;16.42;76.80;99889.88;436313;1254;140491;-63
2023/09/09 23:12:32;;;;;;;30.20;17.50;;;;;;;16.34;77.14;99887.42;436302;1256;140053;-63
2023/09/09 23:22:38;;;;;;;19.20;17.10;;;;;;;16.26;77.42;99891.36;435798;1256;140132;-63
2023/09/09 23:32:44;;;;;;;20.40;17.20;;;;;;;16.13;77.62;99886.47;435528;1256;139768;-63
2023/09/09 23:42:50;;;;;;;20.80;17.40;;;;;;;16.00;78.10;99888.39;435769;1254;140100;-64
2023/09/09 23:53:01;;;;;;;16.90;15.20;;;;;;;15.86;78.35;99882.42;435988;1252;139242;-63
